This is the latest recevied weather packets stored in our database for station/object IR1CH-3. If no packets are shown the sender has not sent any weather packets the latest 10 day(s).
| Time | Temp. | Humidity | Pressure | Rain* | Wind** | Luminosity | Snow |
|---|---|---|---|---|---|---|---|
| 1788277132 | 25.56° C | 99% | 1015.3 hPa | - | - | - | - |
| 1788275332 | 26.67° C | 95% | 1015.2 hPa | - | - | - | - |
| 1788273531 | 26.67° C | 96% | 1015.5 hPa | - | - | - | - |
| 1788271731 | 27.22° C | 94% | 1015.6 hPa | - | - | - | - |
| 1788269931 | 27.78° C | 95% | 1015.8 hPa | - | - | - | - |
| 1788268130 | 27.22° C | 94% | 1016 hPa | - | - | - | - |
| 1788266330 | 28.33° C | 89% | 1016 hPa | - | - | - | - |
| 1788264530 | 27.78° C | 91% | 1016 hPa | - | - | - | - |
| 1788262729 | 27.78° C | 94% | 1016 hPa | - | - | - | - |
| 1788260929 | 28.89° C | 92% | 1015.7 hPa | - | - | - | - |
| 1788259128 | 28.89° C | 93% | 1015.6 hPa | - | - | - | - |
| 1788257328 | 28.33° C | 92% | 1015.6 hPa | - | - | - | - |
| 1788255528 | 30.56° C | 84% | 1015.5 hPa | - | - | - | - |
| 1788253727 | 27.22° C | 98% | 1015.5 hPa | - | - | - | - |
| 1788251927 | 26.11° C | 99% | 1015.6 hPa | - | - | - | - |
| 1788250127 | 26.11° C | 99% | 1015.3 hPa | - | - | - | - |
| 1788248327 | 26.11° C | 96% | 1014.9 hPa | - | - | - | - |
| 1788246526 | 25.56° C | 99% | 1014.9 hPa | - | - | - | - |
| 1788244726 | 25° C | 85% | 1014.8 hPa | - | - | - | - |
| 1788242926 | 25.56° C | 87% | 1014.7 hPa | - | - | - | - |
| 1788241125 | 25° C | 92% | 1014.4 hPa | - | - | - | - |
| 1788239325 | 24.44° C | 99% | 1014.5 hPa | - | - | - | - |
| 1788237525 | 23.89° C | 99% | 1014.4 hPa | - | - | - | - |
| 1788215921 | 25° C | 98% | 1014.3 hPa | - | - | - | - |
| 1788212320 | 25° C | 99% | 1014.3 hPa | - | - | - | - |
* Rain since midnight (hover to see other rain measurements)
** Current wind speed in m/s (hover to see current wind gust speed)